sensor_id;sensor_type;location;lat;lon;timestamp;pressure;altitude;pressure_sealevel;temperature;humidity
79242;BME280;68670;48.720;9.118;2023-04-28T00:01:39;96685.06;;;9.08;71.54
79242;BME280;68670;48.720;9.118;2023-04-28T00:04:04;96675.03;;;9.14;70.91
79242;BME280;68670;48.720;9.118;2023-04-28T00:06:29;96669.69;;;9.19;71.69
79242;BME280;68670;48.720;9.118;2023-04-28T00:08:57;96661.03;;;9.22;73.86
79242;BME280;68670;48.720;9.118;2023-04-28T00:11:22;96663.03;;;9.15;73.13
79242;BME280;68670;48.720;9.118;2023-04-28T00:13:48;96661.28;;;9.09;74.23
79242;BME280;68670;48.720;9.118;2023-04-28T00:16:15;96662.84;;;9.05;72.54
79242;BME280;68670;48.720;9.118;2023-04-28T00:18:41;96671.13;;;9.10;72.46
79242;BME280;68670;48.720;9.118;2023-04-28T00:21:08;96665.06;;;9.20;72.94
79242;BME280;68670;48.720;9.118;2023-04-28T00:23:38;96656.63;;;9.21;71.00
79242;BME280;68670;48.720;9.118;2023-04-28T00:26:06;96656.16;;;9.24;70.75
79242;BME280;68670;48.720;9.118;2023-04-28T00:28:31;96659.59;;;9.20;73.00
79242;BME280;68670;48.720;9.118;2023-04-28T00:30:57;96650.69;;;9.24;73.96
79242;BME280;68670;48.720;9.118;2023-04-28T00:33:24;96656.50;;;9.28;72.37
79242;BME280;68670;48.720;9.118;2023-04-28T00:35:58;96651.38;;;9.31;72.69
79242;BME280;68670;48.720;9.118;2023-04-28T00:38:26;96649.25;;;9.33;71.59
79242;BME280;68670;48.720;9.118;2023-04-28T00:40:51;96648.53;;;9.26;71.75
79242;BME280;68670;48.720;9.118;2023-04-28T00:43:16;96643.56;;;9.23;73.45
79242;BME280;68670;48.720;9.118;2023-04-28T00:45:44;96640.00;;;9.23;72.43
79242;BME280;68670;48.720;9.118;2023-04-28T00:48:10;96647.34;;;9.22;70.20
79242;BME280;68670;48.720;9.118;2023-04-28T00:50:35;96642.72;;;9.23;70.90
79242;BME280;68670;48.720;9.118;2023-04-28T00:53:03;96640.09;;;9.28;74.16
79242;BME280;68670;48.720;9.118;2023-04-28T00:55:30;96630.47;;;9.25;71.26
79242;BME280;68670;48.720;9.118;2023-04-28T00:58:01;96626.69;;;9.26;73.05
79242;BME280;68670;48.720;9.118;2023-04-28T01:00:26;96626.44;;;9.28;74.34
79242;BME280;68670;48.720;9.118;2023-04-28T01:02:52;96621.69;;;9.23;76.36
79242;BME280;68670;48.720;9.118;2023-04-28T01:05:18;96616.22;;;9.23;73.29
79242;BME280;68670;48.720;9.118;2023-04-28T01:07:46;96622.19;;;9.20;73.21
79242;BME280;68670;48.720;9.118;2023-04-28T01:10:11;96621.69;;;9.23;74.47
79242;BME280;68670;48.720;9.118;2023-04-28T01:12:38;96611.72;;;9.17;73.25
79242;BME280;68670;48.720;9.118;2023-04-28T01:15:14;96622.88;;;9.27;75.29
79242;BME280;68670;48.720;9.118;2023-04-28T01:17:43;96621.31;;;9.31;72.73
79242;BME280;68670;48.720;9.118;2023-04-28T01:20:09;96617.03;;;9.35;73.35
79242;BME280;68670;48.720;9.118;2023-04-28T01:22:35;96605.03;;;9.36;74.10
79242;BME280;68670;48.720;9.118;2023-04-28T01:25:00;96604.44;;;9.34;74.59
79242;BME280;68670;48.720;9.118;2023-04-28T01:27:27;96601.72;;;9.34;76.93
79242;BME280;68670;48.720;9.118;2023-04-28T01:29:55;96601.38;;;9.31;74.63
79242;BME280;68670;48.720;9.118;2023-04-28T01:32:22;96593.41;;;9.29;76.48
79242;BME280;68670;48.720;9.118;2023-04-28T01:34:49;96596.84;;;9.36;75.52
79242;BME280;68670;48.720;9.118;2023-04-28T01:37:15;96591.25;;;9.31;75.54
79242;BME280;68670;48.720;9.118;2023-04-28T01:39:43;96591.25;;;9.31;73.65
79242;BME280;68670;48.720;9.118;2023-04-28T01:42:09;96583.91;;;9.20;74.49
79242;BME280;68670;48.720;9.118;2023-04-28T01:44:36;96594.84;;;9.20;74.84
79242;BME280;68670;48.720;9.118;2023-04-28T01:47:02;96585.09;;;9.24;77.37
79242;BME280;68670;48.720;9.118;2023-04-28T01:49:29;96590.56;;;9.24;75.40
79242;BME280;68670;48.720;9.118;2023-04-28T01:51:54;96581.28;;;9.25;76.17
79242;BME280;68670;48.720;9.118;2023-04-28T01:54:20;96574.75;;;9.26;74.92
79242;BME280;68670;48.720;9.118;2023-04-28T02:00:02;96585.78;;;9.31;74.88
79242;BME280;68670;48.720;9.118;2023-04-28T02:02:33;96582.00;;;9.32;73.95
79242;BME280;68670;48.720;9.118;2023-04-28T02:05:01;96589.59;;;9.30;74.90
79242;BME280;68670;48.720;9.118;2023-04-28T02:07:28;96582.00;;;9.32;76.51
79242;BME280;68670;48.720;9.118;2023-04-28T02:09:56;96577.25;;;9.28;75.31
79242;BME280;68670;48.720;9.118;2023-04-28T02:12:22;96572.03;;;9.26;75.83
79242;BME280;68670;48.720;9.118;2023-04-28T02:14:47;96561.94;;;9.27;76.52
79242;BME280;68670;48.720;9.118;2023-04-28T02:17:15;96557.28;;;9.27;74.45
79242;BME280;68670;48.720;9.118;2023-04-28T02:19:40;96560.59;;;9.29;74.61
79242;BME280;68670;48.720;9.118;2023-04-28T02:22:05;96569.16;;;9.33;75.65
79242;BME280;68670;48.720;9.118;2023-04-28T02:24:34;96571.75;;;9.39;74.82
79242;BME280;68670;48.720;9.118;2023-04-28T02:26:59;96572.41;;;9.47;73.98
79242;BME280;68670;48.720;9.118;2023-04-28T02:29:27;96563.25;;;9.53;74.34
79242;BME280;68670;48.720;9.118;2023-04-28T02:31:54;96567.16;;;9.57;75.36
79242;BME280;68670;48.720;9.118;2023-04-28T02:34:19;96561.69;;;9.57;75.46
79242;BME280;68670;48.720;9.118;2023-04-28T02:36:46;96568.31;;;9.61;76.89
79242;BME280;68670;48.720;9.118;2023-04-28T02:39:12;96552.16;;;9.59;75.31
79242;BME280;68670;48.720;9.118;2023-04-28T02:41:42;96550.84;;;9.62;74.18
79242;BME280;68670;48.720;9.118;2023-04-28T02:44:07;96551.66;;;9.62;74.41
79242;BME280;68670;48.720;9.118;2023-04-28T02:46:33;96552.59;;;9.68;73.92
79242;BME280;68670;48.720;9.118;2023-04-28T02:48:58;96554.91;;;9.76;71.74
79242;BME280;68670;48.720;9.118;2023-04-28T02:51:23;96553.53;;;9.90;69.35
79242;BME280;68670;48.720;9.118;2023-04-28T02:53:49;96553.28;;;10.08;67.25
79242;BME280;68670;48.720;9.118;2023-04-28T02:56:15;96559.63;;;10.26;66.82
79242;BME280;68670;48.720;9.118;2023-04-28T02:58:42;96559.72;;;10.31;66.61
79242;BME280;68670;48.720;9.118;2023-04-28T03:01:12;96561.34;;;10.49;66.10
79242;BME280;68670;48.720;9.118;2023-04-28T03:03:40;96567.41;;;10.67;65.84
79242;BME280;68670;48.720;9.118;2023-04-28T03:06:06;96569.56;;;10.65;66.52
79242;BME280;68670;48.720;9.118;2023-04-28T03:08:31;96551.31;;;10.54;67.08
79242;BME280;68670;48.720;9.118;2023-04-28T03:10:59;96554.63;;;10.56;67.46
79242;BME280;68670;48.720;9.118;2023-04-28T03:13:27;96546.50;;;10.61;66.84
79242;BME280;68670;48.720;9.118;2023-04-28T03:15:56;96539.03;;;10.57;67.97
79242;BME280;68670;48.720;9.118;2023-04-28T03:18:26;96543.69;;;10.56;68.13
79242;BME280;68670;48.720;9.118;2023-04-28T03:20:53;96544.34;;;10.63;67.70
79242;BME280;68670;48.720;9.118;2023-04-28T03:23:19;96547.47;;;10.72;66.93
79242;BME280;68670;48.720;9.118;2023-04-28T03:25:46;96539.50;;;10.70;67.04
79242;BME280;68670;48.720;9.118;2023-04-28T03:28:12;96533.81;;;10.77;66.39
79242;BME280;68670;48.720;9.118;2023-04-28T03:30:37;96542.44;;;10.86;66.19
79242;BME280;68670;48.720;9.118;2023-04-28T03:33:03;96534.38;;;10.96;65.54
79242;BME280;68670;48.720;9.118;2023-04-28T03:35:28;96535.94;;;10.92;66.23
79242;BME280;68670;48.720;9.118;2023-04-28T03:37:59;96529.81;;;10.85;66.73
79242;BME280;68670;48.720;9.118;2023-04-28T03:40:24;96533.41;;;10.85;66.37
79242;BME280;68670;48.720;9.118;2023-04-28T03:42:52;96527.00;;;10.80;66.34
79242;BME280;68670;48.720;9.118;2023-04-28T03:45:17;96531.47;;;10.86;66.20
79242;BME280;68670;48.720;9.118;2023-04-28T03:47:47;96531.16;;;10.82;66.32
79242;BME280;68670;48.720;9.118;2023-04-28T03:50:13;96536.47;;;10.89;65.90
79242;BME280;68670;48.720;9.118;2023-04-28T03:52:43;96528.16;;;10.84;65.96
79242;BME280;68670;48.720;9.118;2023-04-28T03:55:08;96516.06;;;10.80;66.85
79242;BME280;68670;48.720;9.118;2023-04-28T03:57:34;96526.31;;;10.89;66.66
79242;BME280;68670;48.720;9.118;2023-04-28T04:00:00;96522.81;;;10.94;65.14
79242;BME280;68670;48.720;9.118;2023-04-28T04:02:27;96527.31;;;11.00;65.07
79242;BME280;68670;48.720;9.118;2023-04-28T04:04:53;96521.31;;;11.03;65.00
79242;BME280;68670;48.720;9.118;2023-04-28T04:07:18;96525.50;;;11.10;64.56
79242;BME280;68670;48.720;9.118;2023-04-28T04:09:43;96518.94;;;11.11;64.66
79242;BME280;68670;48.720;9.118;2023-04-28T04:12:11;96514.97;;;11.24;64.07
79242;BME280;68670;48.720;9.118;2023-04-28T04:14:36;96508.22;;;11.32;63.47
79242;BME280;68670;48.720;9.118;2023-04-28T04:17:02;96518.34;;;11.31;63.88
79242;BME280;68670;48.720;9.118;2023-04-28T04:19:29;96518.97;;;11.38;63.69
79242;BME280;68670;48.720;9.118;2023-04-28T04:21:55;96516.50;;;11.37;63.94
79242;BME280;68670;48.720;9.118;2023-04-28T04:24:20;96512.88;;;11.31;64.16
79242;BME280;68670;48.720;9.118;2023-04-28T04:26:48;96516.28;;;11.43;63.94
79242;BME280;68670;48.720;9.118;2023-04-28T04:29:13;96507.28;;;11.48;63.76
79242;BME280;68670;48.720;9.118;2023-04-28T04:31:38;96496.81;;;11.45;64.01
79242;BME280;68670;48.720;9.118;2023-04-28T04:34:03;96499.06;;;11.48;64.41
79242;BME280;68670;48.720;9.118;2023-04-28T04:36:31;96505.25;;;11.38;65.15
79242;BME280;68670;48.720;9.118;2023-04-28T04:38:57;96513.03;;;11.47;64.99
79242;BME280;68670;48.720;9.118;2023-04-28T04:41:25;96506.44;;;11.48;65.91
79242;BME280;68670;48.720;9.118;2023-04-28T04:43:53;96510.28;;;11.47;66.46
79242;BME280;68670;48.720;9.118;2023-04-28T04:46:18;96504.72;;;11.36;66.95
79242;BME280;68670;48.720;9.118;2023-04-28T04:48:43;96509.03;;;11.32;68.27
79242;BME280;68670;48.720;9.118;2023-04-28T04:51:11;96507.38;;;11.31;69.05
79242;BME280;68670;48.720;9.118;2023-04-28T04:53:37;96499.50;;;11.13;71.83
79242;BME280;68670;48.720;9.118;2023-04-28T04:56:06;96503.81;;;11.09;72.77
79242;BME280;68670;48.720;9.118;2023-04-28T04:58:34;96506.31;;;10.89;75.10
79242;BME280;68670;48.720;9.118;2023-04-28T05:01:04;96502.81;;;10.71;77.54
79242;BME280;68670;48.720;9.118;2023-04-28T05:03:29;96503.69;;;10.55;78.43
79242;BME280;68670;48.720;9.118;2023-04-28T05:05:55;96504.94;;;10.48;80.01
79242;BME280;68670;48.720;9.118;2023-04-28T05:08:20;96498.56;;;10.42;80.45
79242;BME280;68670;48.720;9.118;2023-04-28T05:10:48;96509.25;;;10.43;80.39
79242;BME280;68670;48.720;9.118;2023-04-28T05:13:13;96510.66;;;10.46;80.26
79242;BME280;68670;48.720;9.118;2023-04-28T05:15:40;96519.38;;;10.43;80.92
79242;BME280;68670;48.720;9.118;2023-04-28T05:18:08;96503.16;;;10.36;82.15
79242;BME280;68670;48.720;9.118;2023-04-28T05:20:35;96505.56;;;10.33;81.97
79242;BME280;68670;48.720;9.118;2023-04-28T05:23:01;96506.25;;;10.45;81.12
79242;BME280;68670;48.720;9.118;2023-04-28T05:25:28;96512.81;;;10.44;81.79
79242;BME280;68670;48.720;9.118;2023-04-28T05:27:55;96513.16;;;10.48;81.31
79242;BME280;68670;48.720;9.118;2023-04-28T05:30:22;96502.56;;;10.34;82.77
79242;BME280;68670;48.720;9.118;2023-04-28T05:32:48;96513.84;;;10.38;82.98
79242;BME280;68670;48.720;9.118;2023-04-28T05:35:15;96505.63;;;10.38;83.30
79242;BME280;68670;48.720;9.118;2023-04-28T05:37:41;96516.50;;;10.33;84.03
79242;BME280;68670;48.720;9.118;2023-04-28T05:40:09;96503.41;;;10.35;84.47
79242;BME280;68670;48.720;9.118;2023-04-28T05:42:34;96512.00;;;10.43;82.91
79242;BME280;68670;48.720;9.118;2023-04-28T05:45:02;96504.59;;;10.44;83.39
79242;BME280;68670;48.720;9.118;2023-04-28T05:47:28;96501.38;;;10.47;83.29
79242;BME280;68670;48.720;9.118;2023-04-28T05:49:55;96506.19;;;10.40;84.40
79242;BME280;68670;48.720;9.118;2023-04-28T05:52:20;96506.19;;;10.40;84.80
79242;BME280;68670;48.720;9.118;2023-04-28T05:54:45;96499.63;;;10.41;85.17
79242;BME280;68670;48.720;9.118;2023-04-28T05:57:10;96505.88;;;10.36;85.09
79242;BME280;68670;48.720;9.118;2023-04-28T05:59:36;96505.06;;;10.36;85.19
79242;BME280;68670;48.720;9.118;2023-04-28T06:02:01;96505.19;;;10.46;84.38
79242;BME280;68670;48.720;9.118;2023-04-28T06:04:29;96504.28;;;10.40;84.67
79242;BME280;68670;48.720;9.118;2023-04-28T06:06:54;96506.84;;;10.47;84.86
79242;BME280;68670;48.720;9.118;2023-04-28T06:09:20;96503.28;;;10.47;85.45
79242;BME280;68670;48.720;9.118;2023-04-28T06:11:45;96497.22;;;10.44;85.64
79242;BME280;68670;48.720;9.118;2023-04-28T06:14:11;96493.16;;;10.47;85.24
79242;BME280;68670;48.720;9.118;2023-04-28T06:16:38;96495.31;;;10.45;85.75
79242;BME280;68670;48.720;9.118;2023-04-28T06:19:04;96499.13;;;10.44;86.38
79242;BME280;68670;48.720;9.118;2023-04-28T06:21:32;96492.06;;;10.48;85.81
79242;BME280;68670;48.720;9.118;2023-04-28T06:23:57;96495.97;;;10.52;85.55
79242;BME280;68670;48.720;9.118;2023-04-28T06:26:23;96500.38;;;10.53;86.07
79242;BME280;68670;48.720;9.118;2023-04-28T06:28:48;96492.47;;;10.57;85.09
79242;BME280;68670;48.720;9.118;2023-04-28T06:31:14;96498.03;;;10.62;84.82
79242;BME280;68670;48.720;9.118;2023-04-28T06:33:39;96490.56;;;10.57;85.19
79242;BME280;68670;48.720;9.118;2023-04-28T06:36:05;96488.56;;;10.69;84.76
79242;BME280;68670;48.720;9.118;2023-04-28T06:38:32;96482.53;;;10.72;84.35
79242;BME280;68670;48.720;9.118;2023-04-28T06:40:58;96485.03;;;10.74;85.19
79242;BME280;68670;48.720;9.118;2023-04-28T06:43:23;96487.22;;;10.72;84.50
79242;BME280;68670;48.720;9.118;2023-04-28T06:45:48;96486.69;;;10.75;84.99
79242;BME280;68670;48.720;9.118;2023-04-28T06:48:16;96483.19;;;10.80;85.15
79242;BME280;68670;48.720;9.118;2023-04-28T06:50:42;96474.72;;;10.81;85.14
79242;BME280;68670;48.720;9.118;2023-04-28T06:53:07;96473.50;;;10.94;84.62
79242;BME280;68670;48.720;9.118;2023-04-28T06:55:35;96476.81;;;10.96;83.88
79242;BME280;68670;48.720;9.118;2023-04-28T06:58:03;96472.50;;;11.00;84.63
79242;BME280;68670;48.720;9.118;2023-04-28T07:00:28;96470.91;;;11.04;83.52
79242;BME280;68670;48.720;9.118;2023-04-28T07:02:53;96481.31;;;11.07;83.91
79242;BME280;68670;48.720;9.118;2023-04-28T07:05:18;96469.34;;;11.13;83.23
79242;BME280;68670;48.720;9.118;2023-04-28T07:07:44;96468.75;;;11.11;84.64
79242;BME280;68670;48.720;9.118;2023-04-28T07:10:12;96474.56;;;11.15;83.89
79242;BME280;68670;48.720;9.118;2023-04-28T07:12:39;96472.13;;;11.18;83.71
79242;BME280;68670;48.720;9.118;2023-04-28T07:15:05;96469.53;;;11.28;83.62
79242;BME280;68670;48.720;9.118;2023-04-28T07:17:31;96468.19;;;11.31;83.35
79242;BME280;68670;48.720;9.118;2023-04-28T07:19:56;96455.91;;;11.38;82.96
79242;BME280;68670;48.720;9.118;2023-04-28T07:22:21;96458.59;;;11.33;83.45
79242;BME280;68670;48.720;9.118;2023-04-28T07:24:47;96459.53;;;11.44;82.07
79242;BME280;68670;48.720;9.118;2023-04-28T07:27:12;96452.69;;;11.47;82.25
79242;BME280;68670;48.720;9.118;2023-04-28T07:29:38;96462.63;;;11.53;82.47
79242;BME280;68670;48.720;9.118;2023-04-28T07:32:03;96455.13;;;11.43;82.64
79242;BME280;68670;48.720;9.118;2023-04-28T07:34:37;96451.41;;;11.54;82.03
79242;BME280;68670;48.720;9.118;2023-04-28T07:37:02;96461.53;;;11.54;81.66
79242;BME280;68670;48.720;9.118;2023-04-28T07:39:31;96451.66;;;11.53;82.92
79242;BME280;68670;48.720;9.118;2023-04-28T07:41:58;96453.56;;;11.52;82.34
79242;BME280;68670;48.720;9.118;2023-04-28T07:44:24;96452.22;;;11.55;82.27
79242;BME280;68670;48.720;9.118;2023-04-28T07:46:49;96459.88;;;11.53;83.35
79242;BME280;68670;48.720;9.118;2023-04-28T07:49:16;96452.75;;;11.52;83.43
79242;BME280;68670;48.720;9.118;2023-04-28T07:51:41;96454.72;;;11.56;83.44
79242;BME280;68670;48.720;9.118;2023-04-28T07:54:07;96453.31;;;11.54;83.80
79242;BME280;68670;48.720;9.118;2023-04-28T07:56:32;96460.41;;;11.50;84.27
79242;BME280;68670;48.720;9.118;2023-04-28T07:58:57;96453.78;;;11.45;85.12
79242;BME280;68670;48.720;9.118;2023-04-28T08:01:23;96474.00;;;11.39;85.89
79242;BME280;68670;48.720;9.118;2023-04-28T08:03:48;96483.88;;;11.40;85.71
79242;BME280;68670;48.720;9.118;2023-04-28T08:06:19;96475.91;;;11.39;86.47
79242;BME280;68670;48.720;9.118;2023-04-28T08:08:46;96483.03;;;11.35;87.21
79242;BME280;68670;48.720;9.118;2023-04-28T08:11:14;96481.13;;;11.35;88.07
79242;BME280;68670;48.720;9.118;2023-04-28T08:13:40;96485.41;;;11.26;88.11
79242;BME280;68670;48.720;9.118;2023-04-28T08:16:07;96483.53;;;11.32;87.99
79242;BME280;68670;48.720;9.118;2023-04-28T08:18:32;96485.19;;;11.33;88.01
79242;BME280;68670;48.720;9.118;2023-04-28T08:20:58;96484.41;;;11.37;88.00
79242;BME280;68670;48.720;9.118;2023-04-28T08:23:23;96489.38;;;11.40;88.30
79242;BME280;68670;48.720;9.118;2023-04-28T08:25:52;96492.16;;;11.45;88.17
79242;BME280;68670;48.720;9.118;2023-04-28T08:28:17;96492.16;;;11.45;88.52
79242;BME280;68670;48.720;9.118;2023-04-28T08:30:48;96492.22;;;11.51;88.42
79242;BME280;68670;48.720;9.118;2023-04-28T08:33:13;96496.63;;;11.52;88.42
79242;BME280;68670;48.720;9.118;2023-04-28T08:35:38;96497.13;;;11.49;89.50
79242;BME280;68670;48.720;9.118;2023-04-28T08:38:05;96496.63;;;11.52;89.58
79242;BME280;68670;48.720;9.118;2023-04-28T08:40:31;96484.63;;;11.58;89.53
79242;BME280;68670;48.720;9.118;2023-04-28T08:42:57;96493.75;;;11.63;89.40
79242;BME280;68670;48.720;9.118;2023-04-28T08:45:26;96499.00;;;11.70;89.47
79242;BME280;68670;48.720;9.118;2023-04-28T08:47:57;96498.81;;;11.76;89.08
79242;BME280;68670;48.720;9.118;2023-04-28T08:50:24;96503.78;;;11.80;88.96
79242;BME280;68670;48.720;9.118;2023-04-28T08:52:53;96509.53;;;11.78;88.90
79242;BME280;68670;48.720;9.118;2023-04-28T08:55:22;96518.44;;;11.90;88.32
79242;BME280;68670;48.720;9.118;2023-04-28T08:57:51;96515.16;;;11.93;88.09
79242;BME280;68670;48.720;9.118;2023-04-28T09:00:18;96524.13;;;11.84;89.34
79242;BME280;68670;48.720;9.118;2023-04-28T09:02:43;96522.72;;;11.81;89.67
79242;BME280;68670;48.720;9.118;2023-04-28T09:05:10;96523.25;;;11.78;89.63
79242;BME280;68670;48.720;9.118;2023-04-28T09:07:35;96524.69;;;11.86;89.40
79242;BME280;68670;48.720;9.118;2023-04-28T09:10:21;96523.09;;;11.90;90.02
79242;BME280;68670;48.720;9.118;2023-04-28T09:12:47;96517.97;;;11.98;89.01
79242;BME280;68670;48.720;9.118;2023-04-28T09:15:34;96527.50;;;11.91;90.24
79242;BME280;68670;48.720;9.118;2023-04-28T09:18:02;96528.94;;;11.98;89.59
79242;BME280;68670;48.720;9.118;2023-04-28T09:20:30;96536.66;;;12.01;89.90
79242;BME280;68670;48.720;9.118;2023-04-28T09:23:11;96533.91;;;12.01;90.45
79242;BME280;68670;48.720;9.118;2023-04-28T09:25:39;96536.38;;;12.03;90.46
79242;BME280;68670;48.720;9.118;2023-04-28T09:28:25;96538.84;;;12.04;90.29
79242;BME280;68670;48.720;9.118;2023-04-28T09:30:50;96545.47;;;12.08;90.58
79242;BME280;68670;48.720;9.118;2023-04-28T09:33:15;96547.22;;;12.20;89.84
79242;BME280;68670;48.720;9.118;2023-04-28T09:35:44;96543.72;;;12.24;90.84
79242;BME280;68670;48.720;9.118;2023-04-28T09:38:11;96542.19;;;12.43;89.59
79242;BME280;68670;48.720;9.118;2023-04-28T09:45:51;96544.16;;;12.90;87.98
79242;BME280;68670;48.720;9.118;2023-04-28T09:48:25;96535.94;;;12.95;88.79
79242;BME280;68670;48.720;9.118;2023-04-28T09:50:52;96531.84;;;13.03;88.17
79242;BME280;68670;48.720;9.118;2023-04-28T09:53:22;96525.34;;;13.19;87.75
79242;BME280;68670;48.720;9.118;2023-04-28T09:55:48;96527.63;;;13.42;87.15
79242;BME280;68670;48.720;9.118;2023-04-28T09:58:19;96529.09;;;13.70;87.80
79242;BME280;68670;48.720;9.118;2023-04-28T10:00:51;96528.34;;;14.21;86.37
79242;BME280;68670;48.720;9.118;2023-04-28T10:03:16;96533.56;;;14.37;85.08
79242;BME280;68670;48.720;9.118;2023-04-28T10:05:46;96533.31;;;14.44;85.42
79242;BME280;68670;48.720;9.118;2023-04-28T10:08:11;96533.88;;;14.51;83.32
79242;BME280;68670;48.720;9.118;2023-04-28T10:10:37;96534.41;;;14.43;84.90
79242;BME280;68670;48.720;9.118;2023-04-28T10:13:03;96530.81;;;14.32;84.14
79242;BME280;68670;48.720;9.118;2023-04-28T10:15:29;96530.56;;;14.29;84.23
79242;BME280;68670;48.720;9.118;2023-04-28T10:17:55;96528.88;;;14.38;84.13
79242;BME280;68670;48.720;9.118;2023-04-28T10:20:21;96536.31;;;14.37;83.98
79242;BME280;68670;48.720;9.118;2023-04-28T10:23:15;96532.78;;;14.47;83.72
79242;BME280;68670;48.720;9.118;2023-04-28T10:25:47;96537.19;;;14.53;83.57
79242;BME280;68670;48.720;9.118;2023-04-28T10:28:14;96539.38;;;14.51;83.88
79242;BME280;68670;48.720;9.118;2023-04-28T10:30:40;96541.31;;;14.45;82.19
79242;BME280;68670;48.720;9.118;2023-04-28T10:35:44;96536.06;;;14.54;84.25
79242;BME280;68670;48.720;9.118;2023-04-28T10:38:13;96538.84;;;14.54;82.74
79242;BME280;68670;48.720;9.118;2023-04-28T10:40:47;96539.38;;;14.56;82.91
79242;BME280;68670;48.720;9.118;2023-04-28T10:43:31;96540.47;;;14.55;83.74
79242;BME280;68670;48.720;9.118;2023-04-28T10:56:21;96522.19;;;14.95;80.19
79242;BME280;68670;48.720;9.118;2023-04-28T11:08:50;96533.66;;;15.32;78.98
79242;BME280;68670;48.720;9.118;2023-04-28T11:11:19;96527.59;;;15.30;77.80
79242;BME280;68670;48.720;9.118;2023-04-28T11:13:46;96535.00;;;15.40;78.67
79242;BME280;68670;48.720;9.118;2023-04-28T11:16:19;96530.63;;;15.34;75.96
79242;BME280;68670;48.720;9.118;2023-04-28T11:18:50;96530.13;;;15.27;77.28
79242;BME280;68670;48.720;9.118;2023-04-28T11:21:16;96530.16;;;15.17;77.65
79242;BME280;68670;48.720;9.118;2023-04-28T11:23:47;96529.31;;;15.16;78.72
79242;BME280;68670;48.720;9.118;2023-04-28T11:26:13;96528.19;;;15.22;80.20
79242;BME280;68670;48.720;9.118;2023-04-28T11:28:53;96523.69;;;15.41;78.34
79242;BME280;68670;48.720;9.118;2023-04-28T11:31:19;96526.44;;;15.57;77.36
79242;BME280;68670;48.720;9.118;2023-04-28T11:33:56;96521.88;;;15.76;75.98
79242;BME280;68670;48.720;9.118;2023-04-28T11:36:29;96522.31;;;15.93;74.44
79242;BME280;68670;48.720;9.118;2023-04-28T11:38:57;96533.31;;;16.03;72.87
79242;BME280;68670;48.720;9.118;2023-04-28T11:41:22;96520.53;;;16.12;71.38
79242;BME280;68670;48.720;9.118;2023-04-28T11:43:48;96533.53;;;16.12;72.84
79242;BME280;68670;48.720;9.118;2023-04-28T11:46:18;96525.28;;;16.07;72.61
79242;BME280;68670;48.720;9.118;2023-04-28T11:48:44;96522.25;;;16.03;71.62
79242;BME280;68670;48.720;9.118;2023-04-28T11:51:35;96516.69;;;16.08;73.58
79242;BME280;68670;48.720;9.118;2023-04-28T11:54:03;96523.91;;;16.04;69.37
79242;BME280;68670;48.720;9.118;2023-04-28T11:56:29;96515.91;;;16.03;70.35
79242;BME280;68670;48.720;9.118;2023-04-28T11:59:10;96517.31;;;16.00;69.39
79242;BME280;68670;48.720;9.118;2023-04-28T12:01:50;96519.50;;;16.03;69.52
79242;BME280;68670;48.720;9.118;2023-04-28T12:04:44;96511.75;;;16.05;70.07
79242;BME280;68670;48.720;9.118;2023-04-28T12:07:12;96525.06;;;15.98;69.61
79242;BME280;68670;48.720;9.118;2023-04-28T12:09:39;96527.63;;;15.90;70.45
79242;BME280;68670;48.720;9.118;2023-04-28T12:12:09;96522.91;;;15.90;71.16
79242;BME280;68670;48.720;9.118;2023-04-28T12:17:29;96503.97;;;16.12;69.26
79242;BME280;68670;48.720;9.118;2023-04-28T12:19:56;96504.47;;;16.20;69.23
79242;BME280;68670;48.720;9.118;2023-04-28T12:22:23;96512.09;;;16.33;69.92
79242;BME280;68670;48.720;9.118;2023-04-28T12:25:21;96516.09;;;16.51;68.99
79242;BME280;68670;48.720;9.118;2023-04-28T12:28:05;96512.91;;;16.67;67.11
79242;BME280;68670;48.720;9.118;2023-04-28T12:30:35;96503.13;;;16.80;66.07
79242;BME280;68670;48.720;9.118;2023-04-28T12:33:03;96515.53;;;16.83;67.73
79242;BME280;68670;48.720;9.118;2023-04-28T12:35:28;96514.06;;;16.90;65.73
79242;BME280;68670;48.720;9.118;2023-04-28T12:37:55;96515.41;;;16.93;65.21
79242;BME280;68670;48.720;9.118;2023-04-28T12:40:24;96515.00;;;16.81;64.41
79242;BME280;68670;48.720;9.118;2023-04-28T12:42:50;96523.34;;;16.75;65.67
79242;BME280;68670;48.720;9.118;2023-04-28T12:45:15;96505.94;;;16.75;63.88
79242;BME280;68670;48.720;9.118;2023-04-28T12:47:41;96508.50;;;16.61;64.53
79242;BME280;68670;48.720;9.118;2023-04-28T12:50:06;96512.69;;;16.59;65.29
79242;BME280;68670;48.720;9.118;2023-04-28T12:52:32;96520.47;;;16.57;66.18
79242;BME280;68670;48.720;9.118;2023-04-28T12:54:59;96511.81;;;16.63;65.24
79242;BME280;68670;48.720;9.118;2023-04-28T12:57:27;96519.56;;;16.66;65.39
79242;BME280;68670;48.720;9.118;2023-04-28T12:59:55;96517.91;;;16.65;65.32
79242;BME280;68670;48.720;9.118;2023-04-28T13:02:21;96513.50;;;16.59;64.70
79242;BME280;68670;48.720;9.118;2023-04-28T13:04:46;96517.78;;;16.46;64.66
79242;BME280;68670;48.720;9.118;2023-04-28T13:07:16;96506.50;;;16.38;64.83
79242;BME280;68670;48.720;9.118;2023-04-28T13:09:41;96506.03;;;16.31;66.23
79242;BME280;68670;48.720;9.118;2023-04-28T13:12:08;96504.88;;;16.37;64.97
79242;BME280;68670;48.720;9.118;2023-04-28T13:14:33;96504.78;;;16.47;65.70
79242;BME280;68670;48.720;9.118;2023-04-28T13:16:59;96484.88;;;16.79;66.22
79242;BME280;68670;48.720;9.118;2023-04-28T13:19:24;96476.66;;;17.22;62.93
79242;BME280;68670;48.720;9.118;2023-04-28T13:21:49;96476.78;;;17.54;64.00
79242;BME280;68670;48.720;9.118;2023-04-28T13:24:18;96477.03;;;17.76;62.14
79242;BME280;68670;48.720;9.118;2023-04-28T13:26:44;96479.06;;;17.71;59.71
79242;BME280;68670;48.720;9.118;2023-04-28T13:29:09;96480.97;;;17.89;60.52
79242;BME280;68670;48.720;9.118;2023-04-28T13:31:35;96479.88;;;18.09;60.35
79242;BME280;68670;48.720;9.118;2023-04-28T13:34:01;96492.06;;;17.89;60.17
79242;BME280;68670;48.720;9.118;2023-04-28T13:36:28;96485.06;;;17.78;60.06
79242;BME280;68670;48.720;9.118;2023-04-28T13:38:55;96491.31;;;17.65;59.85